createdAt,value
2018-10-05T00:00:27.845Z,0.00
2018-10-05T00:01:27.704Z,0.00
2018-10-05T00:02:27.639Z,0.00
2018-10-05T00:03:27.571Z,0.00
2018-10-05T00:04:27.487Z,0.00
2018-10-05T00:05:27.474Z,0.00
2018-10-05T00:06:27.848Z,0.00
2018-10-05T00:07:27.409Z,0.00
2018-10-05T00:08:27.369Z,0.00
2018-10-05T00:09:27.342Z,0.00
2018-10-05T00:10:27.309Z,0.00
2018-10-05T00:11:27.297Z,0.00
2018-10-05T00:12:27.567Z,0.00
2018-10-05T00:13:27.224Z,0.00
2018-10-05T00:14:27.198Z,0.00
2018-10-05T00:15:27.163Z,0.00
2018-10-05T00:16:27.126Z,0.00
2018-10-05T00:17:27.116Z,0.00
2018-10-05T00:18:27.362Z,0.00
2018-10-05T00:19:27.055Z,0.00
2018-10-05T00:20:27.055Z,0.00
2018-10-05T00:21:26.990Z,0.00
2018-10-05T00:22:26.966Z,0.00
2018-10-05T00:23:26.926Z,0.00
2018-10-05T00:24:26.897Z,0.00
2018-10-05T00:25:26.879Z,0.00
2018-10-05T00:26:26.847Z,0.00
2018-10-05T00:27:26.801Z,0.00
2018-10-05T00:28:26.780Z,0.00
2018-10-05T00:29:26.773Z,0.00
2018-10-05T00:30:26.939Z,0.00
2018-10-05T00:31:26.696Z,0.00
2018-10-05T00:32:26.712Z,0.00
2018-10-05T00:33:26.627Z,0.00
2018-10-05T00:34:26.621Z,0.00
2018-10-05T00:35:26.580Z,0.00
2018-10-05T00:36:26.571Z,0.00
2018-10-05T00:37:26.519Z,0.00
2018-10-05T00:38:26.486Z,0.00
2018-10-05T00:39:26.568Z,0.00
2018-10-05T00:40:26.441Z,0.00
2018-10-05T00:41:26.412Z,0.00
2018-10-05T00:42:26.370Z,0.00
2018-10-05T00:43:26.403Z,0.00
2018-10-05T00:44:26.308Z,0.00
2018-10-05T00:45:26.438Z,0.00
2018-10-05T00:46:26.243Z,0.00
2018-10-05T00:47:26.216Z,0.00
2018-10-05T00:48:26.207Z,0.00
2018-10-05T00:49:26.237Z,0.00
2018-10-05T00:50:26.160Z,0.00
2018-10-05T00:51:26.107Z,0.00
2018-10-05T00:52:26.078Z,0.00
2018-10-05T00:53:26.140Z,0.00
2018-10-05T00:54:26.029Z,0.00
2018-10-05T00:55:25.994Z,0.00
2018-10-05T00:56:25.961Z,0.00
2018-10-05T00:57:25.948Z,0.00
2018-10-05T00:58:26.024Z,0.00
2018-10-05T00:59:25.895Z,0.00
2018-10-05T01:00:25.842Z,0.00
2018-10-05T01:01:25.814Z,0.00
2018-10-05T01:02:25.787Z,0.00
2018-10-05T01:03:25.792Z,0.00
2018-10-05T01:04:25.726Z,0.00
2018-10-05T01:05:25.689Z,0.00
2018-10-05T01:06:25.660Z,0.00
2018-10-05T01:07:25.647Z,0.00
2018-10-05T01:08:25.615Z,0.00
2018-10-05T01:09:25.606Z,0.00
2018-10-05T01:10:25.561Z,0.00
2018-10-05T01:11:25.667Z,0.00
2018-10-05T01:12:25.535Z,0.00
2018-10-05T01:13:25.453Z,0.00
2018-10-05T01:14:25.430Z,0.00
2018-10-05T01:15:25.418Z,0.00
2018-10-05T01:16:25.383Z,0.00
2018-10-05T01:17:25.503Z,0.00
2018-10-05T01:18:25.329Z,0.00
2018-10-05T01:19:25.285Z,0.00
2018-10-05T01:20:25.279Z,0.00
2018-10-05T01:21:25.224Z,0.00
2018-10-05T01:22:25.199Z,0.00
2018-10-05T01:23:25.172Z,0.00
2018-10-05T01:24:25.155Z,0.00
2018-10-05T01:25:25.150Z,0.00
2018-10-05T01:26:25.085Z,0.00
2018-10-05T01:27:25.047Z,0.00
2018-10-05T01:28:25.227Z,0.00
2018-10-05T01:29:24.985Z,0.00
2018-10-05T01:30:24.963Z,0.00
2018-10-05T01:31:24.930Z,0.00
2018-10-05T01:32:24.908Z,0.00
2018-10-05T01:33:24.893Z,0.00
2018-10-05T01:34:24.840Z,0.00
2018-10-05T01:35:24.833Z,0.00
2018-10-05T01:36:24.774Z,0.00
2018-10-05T01:37:24.770Z,0.00
2018-10-05T01:38:24.739Z,0.00
2018-10-05T01:39:24.707Z,0.00
2018-10-05T01:40:24.668Z,0.00
2018-10-05T01:41:24.639Z,0.00
2018-10-05T01:42:24.659Z,0.00
2018-10-05T01:43:24.587Z,0.00
2018-10-05T01:44:24.561Z,0.00
2018-10-05T01:45:24.523Z,0.00
2018-10-05T01:46:24.544Z,0.00
2018-10-05T01:47:24.475Z,0.00
2018-10-05T01:48:24.632Z,0.00
2018-10-05T01:49:24.405Z,0.00
2018-10-05T01:50:24.382Z,0.00
2018-10-05T01:51:24.356Z,0.00
2018-10-05T01:52:24.308Z,0.00
2018-10-05T01:53:24.285Z,0.00
2018-10-05T01:54:24.509Z,0.00
2018-10-05T01:55:24.228Z,0.00
2018-10-05T01:56:24.215Z,0.00
2018-10-05T01:57:24.185Z,0.00
2018-10-05T01:58:24.135Z,0.00
2018-10-05T01:59:24.106Z,0.00
2018-10-05T02:00:24.067Z,0.00
2018-10-05T02:01:24.049Z,0.00
2018-10-05T02:02:24.108Z,0.00
2018-10-05T02:03:23.985Z,0.00
2018-10-05T02:04:23.971Z,0.00
2018-10-05T02:05:24.045Z,0.00
2018-10-05T02:06:23.894Z,0.00
2018-10-05T02:07:23.886Z,0.00
2018-10-05T02:08:23.833Z,0.00
2018-10-05T02:09:23.817Z,0.00
2018-10-05T02:10:23.778Z,0.00
2018-10-05T02:11:23.757Z,0.00
2018-10-05T02:12:23.713Z,0.00
2018-10-05T02:13:23.698Z,0.00
2018-10-05T02:14:23.656Z,0.00
2018-10-05T02:15:23.658Z,0.00
2018-10-05T02:16:23.610Z,0.00
2018-10-05T02:17:23.589Z,0.00
2018-10-05T02:18:23.553Z,0.00
2018-10-05T02:19:23.519Z,0.00
2018-10-05T02:20:23.748Z,0.00
2018-10-05T02:21:23.463Z,0.00
2018-10-05T02:22:23.438Z,0.00
2018-10-05T02:23:23.388Z,0.00
2018-10-05T02:24:23.381Z,0.00
2018-10-05T02:25:23.339Z,0.00
2018-10-05T02:26:23.459Z,0.00
2018-10-05T02:27:23.296Z,0.00
2018-10-05T02:28:23.252Z,0.00
2018-10-05T02:29:23.244Z,0.00
2018-10-05T02:30:23.197Z,0.00
2018-10-05T02:31:23.172Z,0.00
2018-10-05T02:32:23.129Z,0.00
2018-10-05T02:33:23.102Z,0.00
2018-10-05T02:34:23.066Z,0.00
2018-10-05T02:35:23.043Z,0.00
2018-10-05T02:36:23.017Z,0.00
2018-10-05T02:37:22.995Z,0.00
2018-10-05T02:38:22.957Z,0.00
2018-10-05T02:39:22.943Z,0.00
2018-10-05T02:40:22.904Z,0.00
2018-10-05T02:41:22.869Z,0.00
2018-10-05T02:42:22.837Z,0.00
2018-10-05T02:43:22.808Z,0.00
2018-10-05T02:44:22.878Z,0.00
2018-10-05T02:45:22.748Z,0.00
2018-10-05T02:46:22.722Z,0.00
2018-10-05T02:47:22.687Z,0.00
2018-10-05T02:48:22.661Z,0.00
2018-10-05T02:49:22.635Z,0.00
2018-10-05T02:50:22.617Z,0.00
2018-10-05T02:51:22.595Z,0.00
2018-10-05T02:53:22.523Z,0.00
2018-10-05T02:54:22.485Z,0.00
2018-10-05T02:55:22.454Z,0.00
2018-10-05T02:56:22.426Z,0.00
2018-10-05T02:57:22.399Z,0.00
2018-10-05T02:58:22.363Z,0.00
2018-10-05T02:59:22.347Z,0.00
2018-10-05T03:00:22.299Z,0.00
2018-10-05T03:01:22.274Z,0.00
2018-10-05T03:02:22.241Z,0.00
2018-10-05T03:03:22.206Z,0.00
2018-10-05T03:04:22.186Z,0.00
2018-10-05T03:05:22.154Z,0.00
2018-10-05T03:06:22.163Z,0.00
2018-10-05T03:07:22.090Z,0.00
2018-10-05T03:08:22.105Z,0.00
2018-10-05T03:09:22.031Z,0.00
2018-10-05T03:10:22.001Z,0.00
2018-10-05T03:11:21.978Z,0.00
2018-10-05T03:12:21.953Z,0.00
2018-10-05T03:13:21.913Z,0.00
2018-10-05T03:14:21.888Z,0.00
2018-10-05T03:15:21.860Z,0.00
2018-10-05T03:16:21.831Z,0.00
2018-10-05T03:17:21.796Z,0.00
2018-10-05T03:18:21.769Z,0.00
2018-10-05T03:19:21.746Z,0.00
2018-10-05T03:20:21.702Z,0.00
2018-10-05T03:21:21.723Z,0.00
2018-10-05T03:22:21.662Z,0.00
2018-10-05T03:23:21.625Z,0.00
2018-10-05T03:24:21.589Z,0.00
2018-10-05T03:25:21.563Z,0.00
2018-10-05T03:26:21.532Z,0.00
2018-10-05T03:27:21.500Z,0.00
2018-10-05T03:28:21.479Z,0.00
2018-10-05T03:29:21.443Z,0.00
2018-10-05T03:30:21.418Z,0.00
2018-10-05T03:31:21.398Z,0.00
2018-10-05T03:32:21.351Z,0.00
2018-10-05T03:33:21.328Z,0.00
2018-10-05T03:34:21.305Z,0.00
2018-10-05T03:35:21.254Z,0.00
2018-10-05T03:36:21.247Z,0.00
2018-10-05T03:37:21.202Z,0.00
2018-10-05T03:38:21.181Z,0.00
2018-10-05T03:39:21.158Z,0.00
2018-10-05T03:40:21.119Z,0.00
2018-10-05T03:41:21.089Z,0.00
2018-10-05T03:42:21.067Z,0.00
2018-10-05T03:43:21.038Z,0.00
2018-10-05T03:44:20.994Z,0.00
2018-10-05T03:45:20.965Z,0.00
2018-10-05T03:46:20.939Z,0.00
2018-10-05T03:47:20.897Z,0.00
2018-10-05T03:48:20.886Z,0.00
2018-10-05T03:49:20.842Z,0.00
2018-10-05T03:50:20.828Z,0.00
2018-10-05T03:51:20.782Z,0.00
2018-10-05T03:52:20.769Z,0.00
2018-10-05T03:53:20.739Z,0.00
2018-10-05T03:54:20.706Z,0.00
2018-10-05T03:55:20.667Z,0.00
2018-10-05T03:56:20.634Z,0.00
2018-10-05T03:57:20.605Z,0.00
2018-10-05T03:58:20.578Z,0.00
2018-10-05T03:59:20.696Z,0.00
2018-10-05T04:00:20.512Z,0.00
2018-10-05T04:01:20.485Z,0.00
2018-10-05T04:02:20.452Z,0.00
2018-10-05T04:03:20.429Z,0.00
2018-10-05T04:04:20.410Z,0.00
2018-10-05T04:05:20.699Z,0.00
2018-10-05T04:06:20.339Z,0.00
2018-10-05T04:07:20.301Z,0.00
2018-10-05T04:08:20.282Z,0.00
2018-10-05T04:09:20.249Z,0.00
2018-10-05T04:10:20.228Z,0.00
2018-10-05T04:11:20.342Z,0.00
2018-10-05T04:12:20.156Z,0.00
2018-10-05T04:13:20.134Z,0.00
2018-10-05T04:14:20.099Z,0.00
2018-10-05T04:15:20.066Z,0.00
2018-10-05T04:16:20.044Z,0.00
2018-10-05T04:17:20.013Z,0.00
2018-10-05T04:18:19.986Z,0.00
2018-10-05T04:19:19.956Z,0.00
2018-10-05T04:20:19.927Z,0.00
2018-10-05T04:21:19.894Z,0.00
2018-10-05T04:22:19.862Z,0.00
2018-10-05T04:23:19.837Z,0.00
2018-10-05T04:24:19.801Z,0.00
2018-10-05T04:25:19.807Z,0.00
2018-10-05T04:26:19.766Z,0.00
2018-10-05T04:27:19.772Z,0.00
2018-10-05T04:28:19.699Z,0.00
2018-10-05T04:29:19.668Z,0.00
2018-10-05T04:30:19.647Z,0.00
2018-10-05T04:31:19.616Z,0.00
2018-10-05T04:32:19.761Z,0.00
2018-10-05T04:33:19.559Z,0.00
2018-10-05T04:34:19.526Z,0.00
2018-10-05T04:35:19.496Z,0.00
2018-10-05T04:36:19.467Z,0.00
2018-10-05T04:37:19.429Z,0.00
2018-10-05T04:38:19.569Z,0.00
2018-10-05T04:39:19.383Z,0.00
2018-10-05T04:40:19.338Z,0.00
2018-10-05T04:41:19.335Z,0.00
2018-10-05T04:42:19.280Z,0.00
2018-10-05T04:43:19.262Z,0.00
2018-10-05T04:44:19.231Z,0.00
2018-10-05T04:45:19.200Z,0.00
2018-10-05T04:46:19.170Z,0.00
2018-10-05T04:47:19.137Z,0.00
2018-10-05T04:48:19.176Z,0.00
2018-10-05T04:49:19.083Z,0.00
2018-10-05T04:50:19.044Z,0.00
2018-10-05T04:51:19.036Z,0.00
2018-10-05T04:52:18.993Z,0.00
2018-10-05T04:53:18.951Z,0.00
2018-10-05T04:54:18.930Z,0.00
2018-10-05T04:55:18.893Z,0.00
2018-10-05T04:56:18.870Z,0.00
2018-10-05T04:57:18.842Z,0.00
2018-10-05T04:58:18.860Z,0.00
2018-10-05T04:59:18.779Z,0.00
2018-10-05T05:00:18.752Z,0.00
2018-10-05T05:01:18.722Z,0.00
2018-10-05T05:02:18.689Z,0.00
2018-10-05T05:03:18.727Z,0.00
2018-10-05T05:04:18.956Z,0.00
2018-10-05T05:05:18.598Z,0.00
2018-10-05T05:06:18.592Z,0.00
2018-10-05T05:07:18.640Z,0.00
2018-10-05T05:08:18.521Z,0.00
2018-10-05T05:09:18.493Z,0.00
2018-10-05T05:10:18.615Z,0.00
2018-10-05T05:11:18.440Z,0.00
2018-10-05T05:12:18.410Z,0.00
2018-10-05T05:13:18.414Z,0.00
2018-10-05T05:14:18.347Z,0.00
2018-10-05T05:15:18.297Z,0.00
2018-10-05T05:16:18.269Z,0.00
2018-10-05T05:17:18.243Z,0.00
2018-10-05T05:18:18.205Z,0.00
2018-10-05T05:21:05.394Z,0.00
2018-10-05T05:22:37.908Z,0.00
2018-10-05T05:23:37.878Z,0.00
2018-10-05T05:24:37.849Z,0.00
2018-10-05T05:26:48.327Z,0.00
2018-10-05T05:28:21.558Z,0.00
2018-10-05T05:28:48.143Z,0.00
2018-10-05T05:29:48.087Z,0.00
2018-10-05T05:30:48.064Z,0.00
2018-10-05T05:31:48.013Z,0.00
2018-10-05T05:32:47.996Z,0.00
2018-10-05T05:33:48.037Z,0.00
2018-10-05T05:34:47.936Z,0.00
2018-10-05T05:35:47.900Z,0.00
2018-10-05T05:36:47.864Z,0.00
2018-10-05T05:37:47.846Z,0.00
2018-10-05T05:38:47.800Z,0.00
2018-10-05T05:39:47.772Z,0.00
2018-10-05T05:40:47.785Z,0.00
2018-10-05T05:41:47.739Z,0.00
2018-10-05T05:42:47.734Z,0.00
2018-10-05T05:43:47.694Z,0.00
2018-10-05T05:44:47.685Z,0.00
2018-10-05T05:45:47.606Z,0.00
2018-10-05T05:46:47.616Z,0.00
2018-10-05T05:47:47.807Z,0.00
2018-10-05T05:48:47.532Z,0.00
2018-10-05T05:49:47.506Z,0.00
2018-10-05T05:50:47.474Z,0.00
2018-10-05T05:51:47.440Z,0.00
2018-10-05T05:52:47.409Z,0.00
2018-10-05T05:53:47.565Z,0.00
2018-10-05T05:54:47.369Z,0.00
2018-10-05T05:55:47.323Z,0.00
2018-10-05T05:56:47.310Z,0.00
2018-10-05T05:57:47.257Z,0.00
2018-10-05T05:58:47.278Z,0.00
2018-10-05T05:59:47.218Z,0.00
2018-10-05T06:00:47.181Z,0.00
2018-10-05T06:01:47.144Z,0.00
2018-10-05T06:02:47.128Z,0.00
2018-10-05T06:03:47.083Z,0.00
2018-10-05T06:04:47.054Z,0.00
2018-10-05T06:05:47.047Z,0.00
2018-10-05T06:06:46.995Z,0.00
2018-10-05T06:07:46.954Z,0.00
2018-10-05T06:08:46.917Z,0.00
2018-10-05T06:09:46.885Z,0.00
2018-10-05T06:10:46.876Z,0.00
2018-10-05T06:11:46.824Z,0.00
2018-10-05T06:12:46.796Z,0.00
2018-10-05T06:13:46.785Z,0.00
2018-10-05T06:14:46.737Z,0.00
2018-10-05T06:15:46.714Z,0.00
2018-10-05T06:16:46.676Z,0.00
2018-10-05T06:17:46.643Z,0.00
2018-10-05T06:18:46.628Z,0.00
2018-10-05T06:19:46.567Z,0.00
2018-10-05T06:20:46.556Z,0.00
2018-10-05T06:21:46.656Z,0.00
2018-10-05T06:22:46.480Z,0.00
2018-10-05T06:23:46.489Z,0.00
2018-10-05T06:24:46.438Z,0.00
2018-10-05T06:25:46.388Z,0.00
2018-10-05T06:26:46.358Z,0.00
2018-10-05T06:27:46.328Z,0.00
2018-10-05T06:28:46.315Z,0.00
2018-10-05T06:29:46.267Z,0.00
2018-10-05T06:30:46.296Z,0.00
2018-10-05T06:31:46.234Z,0.00
2018-10-05T06:32:46.178Z,0.00
2018-10-05T06:33:46.152Z,0.00
2018-10-05T06:34:46.127Z,0.00
2018-10-05T06:35:46.088Z,0.00
2018-10-05T06:36:46.078Z,0.00
2018-10-05T06:37:46.057Z,0.00
2018-10-05T06:38:46.027Z,0.00
2018-10-05T06:39:45.967Z,0.00
2018-10-05T06:40:45.937Z,0.00
2018-10-05T06:41:45.904Z,0.00
2018-10-05T06:42:45.902Z,0.00
2018-10-05T06:43:45.867Z,0.00
2018-10-05T06:44:45.822Z,0.00
2018-10-05T06:45:45.786Z,0.00
2018-10-05T06:46:45.774Z,0.00
2018-10-05T06:47:45.741Z,0.00
2018-10-05T06:48:45.701Z,0.00
2018-10-05T06:49:45.687Z,0.00
2018-10-05T06:50:45.796Z,0.00
2018-10-05T06:51:45.627Z,0.00
2018-10-05T06:52:45.583Z,0.00
2018-10-05T06:53:45.548Z,0.00
2018-10-05T06:54:45.519Z,0.00
2018-10-05T06:55:45.494Z,0.00
2018-10-05T06:56:45.616Z,0.00
2018-10-05T06:57:45.423Z,0.00
2018-10-05T06:58:45.415Z,0.00
2018-10-05T06:59:45.384Z,0.00
2018-10-05T07:00:45.345Z,0.00
2018-10-05T07:01:45.327Z,0.00
2018-10-05T07:02:45.278Z,0.00
2018-10-05T07:03:45.249Z,0.00
2018-10-05T07:04:45.212Z,0.00
2018-10-05T07:05:45.205Z,0.00
2018-10-05T07:06:45.157Z,0.00
2018-10-05T07:07:45.151Z,0.00
2018-10-05T07:08:45.100Z,0.00
2018-10-05T07:09:45.064Z,0.00
2018-10-05T07:10:45.037Z,0.00
2018-10-05T07:11:45.032Z,0.00
2018-10-05T07:12:44.976Z,0.00
2018-10-05T07:13:44.946Z,0.00
2018-10-05T07:14:44.921Z,0.00
2018-10-05T07:15:44.910Z,0.00
2018-10-05T07:16:44.858Z,0.00
2018-10-05T07:17:44.820Z,0.00
2018-10-05T07:18:44.788Z,0.00
2018-10-05T07:19:44.755Z,0.00
2018-10-05T07:20:44.734Z,0.00
2018-10-05T07:21:44.704Z,0.00
2018-10-05T07:22:44.849Z,0.00
2018-10-05T07:23:44.638Z,0.00
2018-10-05T07:24:44.616Z,0.00
2018-10-05T07:25:44.622Z,0.00
2018-10-05T07:26:44.553Z,0.00
2018-10-05T07:27:44.525Z,0.00
2018-10-05T07:28:44.556Z,0.00
2018-10-05T07:29:44.471Z,0.00
2018-10-05T07:30:44.439Z,0.00
2018-10-05T07:31:44.401Z,0.00
2018-10-05T07:32:44.373Z,0.00
2018-10-05T07:33:44.340Z,0.00
2018-10-05T07:34:44.311Z,0.00
2018-10-05T07:35:44.279Z,0.00
2018-10-05T07:36:44.280Z,0.00
2018-10-05T07:37:44.255Z,0.00
2018-10-05T07:38:44.181Z,0.00
2018-10-05T07:39:44.172Z,0.00
2018-10-05T07:40:44.123Z,0.00
2018-10-05T07:41:44.111Z,0.00
2018-10-05T07:42:44.068Z,0.00
2018-10-05T07:43:44.083Z,0.00
2018-10-05T07:44:44.033Z,0.00
2018-10-05T07:45:43.975Z,0.00
2018-10-05T07:46:43.969Z,0.00
2018-10-05T07:47:43.919Z,0.00
2018-10-05T07:48:43.905Z,0.00
2018-10-05T07:49:43.861Z,0.00
2018-10-05T07:50:43.842Z,0.00
2018-10-05T07:51:43.809Z,0.00
2018-10-05T07:52:43.778Z,0.00
2018-10-05T07:53:43.735Z,0.00
2018-10-05T07:54:43.707Z,0.00
2018-10-05T07:55:43.711Z,0.00
2018-10-05T07:56:43.648Z,0.00
2018-10-05T07:57:43.659Z,0.00
2018-10-05T07:58:43.587Z,0.00
2018-10-05T07:59:43.562Z,0.00
2018-10-05T08:00:43.529Z,0.00
2018-10-05T08:01:43.497Z,0.00
2018-10-05T08:02:43.463Z,0.00
2018-10-05T08:03:43.433Z,0.00
2018-10-05T08:04:43.398Z,0.00
2018-10-05T08:05:43.374Z,0.00
2018-10-05T08:06:43.351Z,0.00
2018-10-05T08:07:43.312Z,0.00
2018-10-05T08:08:43.280Z,0.00
2018-10-05T08:09:43.355Z,0.00
2018-10-05T08:10:43.221Z,0.00
2018-10-05T08:11:43.215Z,0.00
2018-10-05T08:12:43.160Z,0.00
2018-10-05T08:13:43.129Z,0.00
2018-10-05T08:14:43.100Z,0.00
2018-10-05T08:15:43.069Z,0.00
2018-10-05T08:16:43.047Z,0.00
2018-10-05T08:17:43.007Z,0.00
2018-10-05T08:18:42.978Z,0.00
2018-10-05T08:19:42.945Z,0.00
2018-10-05T08:20:42.916Z,0.00
2018-10-05T08:21:42.892Z,0.00
2018-10-05T08:22:42.854Z,0.00
2018-10-05T08:23:42.838Z,0.00
2018-10-05T08:24:42.798Z,0.00
2018-10-05T08:25:42.774Z,0.00
2018-10-05T08:26:42.725Z,0.00
2018-10-05T08:27:42.730Z,0.00
2018-10-05T08:28:42.673Z,0.00
2018-10-05T08:29:42.654Z,0.00
2018-10-05T08:30:42.755Z,0.00
2018-10-05T08:31:42.581Z,0.00
2018-10-05T08:32:42.554Z,0.00
2018-10-05T08:33:42.524Z,0.00
2018-10-05T08:34:42.488Z,0.00
2018-10-05T08:35:42.484Z,0.00
2018-10-05T08:36:42.428Z,0.00
2018-10-05T08:37:42.401Z,0.00
2018-10-05T08:38:42.370Z,0.00
2018-10-05T08:39:42.391Z,0.00
2018-10-05T08:40:42.307Z,0.00
2018-10-05T08:41:42.269Z,0.00
2018-10-05T08:42:42.246Z,0.00
2018-10-05T08:43:42.213Z,0.00
2018-10-05T08:44:42.184Z,0.00
2018-10-05T08:45:42.186Z,0.00
2018-10-05T08:47:42.127Z,0.00
2018-10-05T08:48:42.076Z,0.00
2018-10-05T08:49:42.025Z,0.00
2018-10-05T08:50:41.991Z,0.00
2018-10-05T08:51:42.000Z,0.00
2018-10-05T08:52:41.939Z,0.00
2018-10-05T08:53:41.908Z,0.00
2018-10-05T08:54:41.878Z,0.00
2018-10-05T08:55:41.851Z,0.00
2018-10-05T08:56:41.821Z,0.00
2018-10-05T08:57:41.796Z,0.00
2018-10-05T08:58:41.753Z,0.00
2018-10-05T08:59:41.729Z,0.00
2018-10-05T09:00:41.695Z,0.00
2018-10-05T09:01:41.667Z,0.00
2018-10-05T09:02:41.936Z,0.00
2018-10-05T09:03:41.605Z,0.00
2018-10-05T09:04:41.573Z,0.00
2018-10-05T09:05:41.570Z,0.00
2018-10-05T09:06:41.509Z,0.00
2018-10-05T09:07:41.483Z,0.00
2018-10-05T09:08:41.553Z,0.00
2018-10-05T09:09:41.420Z,0.00
2018-10-05T09:10:41.388Z,0.00
2018-10-05T09:11:41.363Z,0.00
2018-10-05T09:12:41.330Z,0.00
2018-10-05T09:13:41.324Z,0.00
2018-10-05T09:14:41.257Z,0.00
2018-10-05T09:15:41.244Z,0.00
2018-10-05T09:16:41.205Z,0.00
2018-10-05T09:17:41.195Z,0.00
2018-10-05T09:18:41.145Z,0.00
2018-10-05T09:19:41.104Z,0.00
2018-10-05T09:20:41.093Z,0.00
2018-10-05T09:21:41.050Z,0.00
2018-10-05T09:22:41.021Z,0.00
2018-10-05T09:23:40.999Z,0.00
2018-10-05T09:24:40.971Z,0.00
2018-10-05T09:25:40.930Z,0.00
2018-10-05T09:26:40.908Z,0.00
2018-10-05T09:27:40.881Z,0.00
2018-10-05T09:28:40.827Z,0.00
2018-10-05T09:30:40.858Z,0.00
2018-10-05T09:31:40.748Z,0.00
2018-10-05T09:32:40.728Z,0.00
2018-10-05T09:33:40.687Z,0.00
2018-10-05T09:34:40.961Z,0.00
2018-10-05T09:35:40.623Z,0.00
2018-10-05T09:36:40.590Z,0.00
2018-10-05T09:37:40.592Z,0.00
2018-10-05T09:38:40.523Z,0.00
2018-10-05T09:39:40.499Z,0.00
2018-10-05T09:40:40.465Z,0.00
2018-10-05T09:41:40.452Z,0.00
2018-10-05T09:42:40.405Z,0.00
2018-10-05T09:43:40.374Z,0.00
2018-10-05T09:44:40.366Z,0.00
2018-10-05T09:45:40.315Z,0.00
2018-10-05T09:46:40.373Z,0.00
2018-10-05T09:47:40.255Z,0.00
2018-10-05T09:48:40.227Z,0.00
2018-10-05T09:49:40.193Z,0.00
2018-10-05T09:50:40.165Z,0.00
2018-10-05T09:51:40.151Z,0.00
2018-10-05T09:52:40.162Z,0.00
2018-10-05T09:53:40.069Z,0.00
2018-10-05T09:54:40.049Z,0.00
2018-10-05T09:55:40.008Z,0.00
2018-10-05T09:56:39.989Z,0.00
2018-10-05T09:57:39.952Z,0.00
2018-10-05T09:58:39.917Z,0.00
2018-10-05T09:59:39.908Z,0.00
2018-10-05T10:00:39.849Z,0.00
2018-10-05T10:01:39.828Z,0.00
2018-10-05T10:02:39.794Z,0.00
2018-10-05T10:03:40.120Z,0.00
2018-10-05T10:04:39.725Z,0.00
2018-10-05T10:05:39.700Z,0.00
2018-10-05T10:06:39.672Z,0.00
2018-10-05T10:07:39.636Z,0.00
2018-10-05T10:08:39.619Z,0.00
2018-10-05T10:09:39.582Z,0.00
2018-10-05T10:10:39.543Z,0.00
2018-10-05T10:12:39.493Z,0.00
2018-10-05T10:13:39.473Z,0.00
2018-10-05T10:14:39.430Z,0.00
2018-10-05T10:15:39.421Z,0.00
2018-10-05T10:16:39.380Z,0.00
2018-10-05T10:17:39.356Z,0.00
2018-10-05T10:18:39.298Z,0.00
2018-10-05T10:19:39.271Z,0.00
2018-10-05T10:20:39.246Z,0.00
2018-10-05T10:21:39.231Z,0.00
2018-10-05T10:22:39.239Z,0.00
2018-10-05T10:23:39.155Z,0.00
2018-10-05T10:24:39.126Z,0.00
2018-10-05T10:25:39.088Z,0.00
2018-10-05T10:26:39.073Z,0.00
2018-10-05T10:27:39.074Z,0.00
2018-10-05T10:28:39.055Z,0.00
2018-10-05T10:29:38.961Z,0.00
2018-10-05T10:30:38.939Z,0.00
2018-10-05T10:31:38.912Z,0.00
2018-10-05T10:32:38.873Z,0.00
2018-10-05T10:33:38.936Z,0.00
2018-10-05T10:34:38.833Z,0.00
2018-10-05T10:35:38.787Z,0.00
2018-10-05T10:36:38.778Z,0.00
2018-10-05T10:37:38.891Z,0.00
2018-10-05T10:38:38.698Z,0.00
2018-10-05T10:39:38.670Z,0.00
2018-10-05T10:40:38.648Z,0.00
2018-10-05T10:41:38.598Z,0.00
2018-10-05T10:42:38.609Z,0.00
2018-10-05T10:43:38.645Z,0.00
2018-10-05T10:44:38.513Z,0.00
2018-10-05T10:45:38.496Z,0.00
2018-10-05T10:46:38.453Z,0.00
2018-10-05T10:47:38.493Z,0.00
2018-10-05T10:48:38.390Z,0.00
2018-10-05T10:49:38.367Z,0.00
2018-10-05T10:50:38.325Z,0.00
2018-10-05T10:51:38.304Z,0.00
2018-10-05T10:52:38.267Z,0.00
2018-10-05T10:53:38.240Z,0.00
2018-10-05T10:54:38.208Z,0.00
2018-10-05T10:55:38.192Z,0.00
2018-10-05T10:56:38.149Z,0.00
2018-10-05T10:57:38.114Z,0.00
2018-10-05T10:58:38.088Z,0.00
2018-10-05T10:59:38.058Z,0.00
2018-10-05T11:00:38.053Z,0.00
2018-10-05T11:01:37.994Z,0.00
2018-10-05T11:02:37.978Z,0.00
2018-10-05T11:03:37.937Z,0.00
2018-10-05T11:04:37.937Z,0.00
2018-10-05T11:05:37.880Z,0.00
2018-10-05T11:06:37.841Z,0.00
2018-10-05T11:07:37.818Z,0.00
2018-10-05T11:08:37.798Z,0.00
2018-10-05T11:09:37.759Z,0.00
2018-10-05T11:10:37.721Z,0.00
2018-10-05T11:11:37.690Z,0.00
2018-10-05T11:12:37.655Z,0.00
2018-10-05T11:13:37.636Z,0.00
2018-10-05T11:14:37.598Z,0.00
2018-10-05T11:15:37.575Z,0.00
2018-10-05T11:16:37.532Z,0.00
2018-10-05T11:17:37.525Z,0.00
2018-10-05T11:18:37.482Z,0.00
2018-10-05T11:19:37.459Z,0.00
2018-10-05T11:20:37.425Z,0.00
2018-10-05T11:21:37.391Z,0.00
2018-10-05T11:22:37.360Z,0.00
2018-10-05T11:23:37.331Z,0.00
2018-10-05T11:24:37.310Z,0.00
2018-10-05T11:25:37.274Z,0.00
2018-10-05T11:26:37.243Z,0.00
2018-10-05T11:27:37.207Z,0.00
2018-10-05T11:28:37.184Z,0.00
2018-10-05T11:29:37.213Z,0.00
2018-10-05T11:30:37.128Z,0.00
2018-10-05T11:31:37.083Z,0.00
2018-10-05T11:32:37.059Z,33.75
2018-10-05T11:33:37.024Z,50.63
2018-10-05T11:34:36.997Z,56.25
2018-10-05T11:35:36.961Z,61.88
2018-10-05T11:36:36.948Z,61.88
2018-10-05T11:37:36.907Z,61.88
2018-10-05T11:38:36.876Z,61.88
2018-10-05T11:39:36.858Z,67.50
2018-10-05T11:40:36.866Z,73.13
2018-10-05T11:41:36.809Z,78.75
2018-10-05T11:42:36.801Z,90.00
2018-10-05T11:43:36.722Z,106.88
2018-10-05T11:44:36.696Z,101.25
2018-10-05T11:45:36.898Z,112.50
2018-10-05T11:47:36.600Z,84.38
2018-10-05T11:48:36.576Z,78.75
2018-10-05T11:49:36.539Z,84.38
2018-10-05T11:50:36.515Z,101.25
2018-10-05T11:51:36.500Z,90.00
2018-10-05T11:52:36.746Z,90.00
2018-10-05T11:53:36.435Z,90.00
2018-10-05T11:54:36.388Z,84.38
2018-10-05T11:55:36.403Z,78.75
2018-10-05T11:56:36.360Z,78.75
2018-10-05T11:57:36.300Z,84.38
2018-10-05T11:59:36.288Z,101.25
2018-10-05T12:00:36.221Z,90.00
2018-10-05T12:01:36.184Z,106.88
2018-10-05T12:02:36.196Z,106.88
2018-10-05T12:04:36.079Z,101.25
2018-10-05T12:05:36.064Z,101.25
2018-10-05T12:06:36.036Z,112.50
2018-10-05T12:07:35.996Z,129.38
2018-10-05T12:08:35.966Z,123.75
2018-10-05T12:09:35.945Z,118.13
2018-10-05T12:10:35.906Z,123.75
2018-10-05T12:11:35.890Z,106.88
2018-10-05T12:12:35.847Z,112.50
2018-10-05T12:13:36.161Z,123.75
2018-10-05T12:14:35.805Z,118.13
2018-10-05T12:15:35.771Z,112.50
2018-10-05T12:16:35.790Z,101.25
2018-10-05T12:17:35.972Z,101.25
2018-10-05T12:18:36.898Z,95.63
2018-10-05T12:19:35.931Z,95.63
2018-10-05T12:20:35.630Z,95.63
2018-10-05T12:21:35.610Z,90.00
2018-10-05T12:22:35.548Z,78.75
2018-10-05T12:23:35.513Z,84.38
2018-10-05T12:24:35.523Z,78.75
2018-10-05T12:26:35.457Z,90.00
2018-10-05T12:27:35.434Z,112.50
2018-10-05T12:28:35.368Z,112.50
2018-10-05T12:29:35.352Z,112.50
2018-10-05T12:30:35.322Z,118.13
2018-10-05T12:31:35.595Z,129.38
2018-10-05T12:32:36.004Z,129.38
2018-10-05T12:33:35.502Z,135.00
2018-10-05T12:34:35.188Z,129.38
2018-10-05T12:35:35.168Z,123.75
2018-10-05T12:36:35.406Z,123.75
2018-10-05T12:37:35.368Z,129.38
2018-10-05T12:38:35.072Z,123.75
2018-10-05T12:39:35.037Z,129.38
2018-10-05T12:40:35.008Z,123.75
2018-10-05T12:41:35.007Z,118.13
2018-10-05T12:42:34.957Z,112.50
2018-10-05T12:43:34.933Z,106.88
2018-10-05T12:44:34.903Z,106.88
2018-10-05T12:45:34.867Z,106.88
2018-10-05T12:46:34.838Z,106.88
2018-10-05T12:47:35.010Z,106.88
2018-10-05T12:48:34.783Z,106.88
2018-10-05T12:49:34.764Z,106.88
2018-10-05T12:50:34.720Z,106.88
2018-10-05T12:51:34.698Z,106.88
2018-10-05T12:52:34.665Z,106.88
2018-10-05T12:53:34.625Z,106.88
2018-10-05T12:54:34.614Z,106.88
2018-10-05T12:55:34.570Z,106.88
2018-10-05T12:56:34.553Z,106.88
2018-10-05T12:57:34.520Z,106.88
2018-10-05T12:58:34.477Z,112.50
2018-10-05T12:59:34.457Z,112.50
2018-10-05T13:00:34.430Z,112.50
2018-10-05T13:01:34.404Z,112.50
2018-10-05T13:02:34.366Z,112.50
2018-10-05T13:03:34.345Z,112.50
2018-10-05T13:04:34.304Z,112.50
2018-10-05T13:05:34.285Z,112.50
2018-10-05T13:06:34.253Z,118.13
2018-10-05T13:07:34.251Z,118.13
2018-10-05T13:08:34.204Z,123.75
2018-10-05T13:09:34.171Z,129.38
2018-10-05T13:10:34.128Z,129.38
2018-10-05T13:11:34.122Z,135.00
2018-10-05T13:12:34.079Z,140.63
2018-10-05T13:13:34.091Z,140.63
2018-10-05T13:14:34.127Z,140.63
2018-10-05T13:15:34.018Z,135.00
2018-10-05T13:16:33.967Z,140.63
2018-10-05T13:17:33.957Z,140.63
2018-10-05T13:18:33.901Z,146.25
2018-10-05T13:19:33.875Z,151.88
2018-10-05T13:20:33.848Z,151.88
2018-10-05T13:21:33.841Z,151.88
2018-10-05T13:22:33.806Z,157.50
2018-10-05T13:23:33.764Z,163.13